Time;durP1;ratioP1;P1;durP2;ratioP2;P2;SDS_P1;SDS_P2;PMS_P1;PMS_P2;Temp;Humidity;BMP_temperature;BMP_pressure;BME280_temperature;BME280_humidity;BME280_pressure;Samples;Min_cycle;Max_cycle;Signal;HPM_P1;HPM_P2
2023/05/03 00:02:06;;;;;;;6.50;5.80;;;9.40;98.00;;;;;;5001431;28;20558;-70
2023/05/03 00:04:33;;;;;;;6.37;4.73;;;9.30;98.50;;;;;;4996753;28;20503;-70
2023/05/03 00:07:00;;;;;;;5.67;5.00;;;9.40;98.90;;;;;;4999571;28;21095;-70
2023/05/03 00:09:27;;;;;;;5.30;4.80;;;9.30;99.40;;;;;;5004253;28;20461;-69
2023/05/03 00:11:54;;;;;;;5.40;4.73;;;9.30;98.70;;;;;;4998879;28;20819;-70
2023/05/03 00:14:21;;;;;;;7.10;5.20;;;9.30;98.40;;;;;;4990621;28;20488;-70
2023/05/03 00:16:48;;;;;;;8.33;5.60;;;9.20;98.30;;;;;;4992508;28;20457;-70
2023/05/03 00:19:16;;;;;;;5.00;4.60;;;9.20;98.50;;;;;;4993531;28;20468;-70
2023/05/03 00:21:43;;;;;;;6.70;5.00;;;9.10;98.30;;;;;;4998337;28;20453;-70
2023/05/03 00:24:10;;;;;;;6.10;5.20;;;9.20;98.20;;;;;;4992787;28;20493;-70
2023/05/03 00:26:37;;;;;;;5.73;4.57;;;9.20;98.20;;;;;;5000098;28;20845;-69
2023/05/03 00:29:03;;;;;;;7.50;5.27;;;9.30;98.00;;;;;;4996316;28;20552;-69
2023/05/03 00:31:30;;;;;;;5.13;4.67;;;9.20;97.90;;;;;;4995186;28;21127;-70
2023/05/03 00:33:57;;;;;;;6.33;5.47;;;9.20;98.20;;;;;;5003532;28;20558;-70
2023/05/03 00:36:26;;;;;;;6.03;5.33;;;9.20;98.30;;;;;;4998562;28;20495;-70
2023/05/03 00:38:53;;;;;;;6.10;5.50;;;9.20;98.20;;;;;;4993734;28;20467;-70
2023/05/03 00:41:23;;;;;;;6.73;5.13;;;9.20;98.10;;;;;;4994758;28;20464;-71
2023/05/03 00:43:50;;;;;;;7.10;5.17;;;9.20;98.20;;;;;;4991468;28;20567;-70
2023/05/03 00:46:16;;;;;;;5.87;4.90;;;9.20;98.20;;;;;;4999726;28;20547;-70
2023/05/03 00:48:43;;;;;;;6.40;5.23;;;9.20;98.20;;;;;;4999231;28;20476;-70
2023/05/03 00:51:14;;;;;;;6.10;4.80;;;9.20;98.10;;;;;;4998601;28;20463;-70
2023/05/03 00:53:42;;;;;;;8.57;5.33;;;9.20;98.20;;;;;;5002850;28;21103;-70
2023/05/03 00:56:10;;;;;;;8.93;5.80;;;9.20;98.00;;;;;;5004048;28;20986;-70
2023/05/03 00:58:39;;;;;;;5.90;5.17;;;9.20;98.10;;;;;;5005103;28;20840;-70
2023/05/03 01:01:06;;;;;;;7.10;6.10;;;9.10;98.10;;;;;;4998648;28;20485;-71
2023/05/03 01:03:35;;;;;;;7.23;5.70;;;9.20;98.00;;;;;;5001655;28;21046;-70
2023/05/03 01:06:08;;;;;;;6.07;5.33;;;9.20;98.00;;;;;;5001027;28;20508;-71
2023/05/03 01:08:39;;;;;;;6.90;5.90;;;9.10;98.20;;;;;;4999350;28;20559;-72
2023/05/03 01:11:17;;;;;;;7.53;6.17;;;9.10;98.20;;;;;;5002083;28;20469;-71
2023/05/03 01:13:52;;;;;;;6.23;5.63;;;9.10;98.40;;;;;;4991957;28;20493;-72
2023/05/03 01:16:24;;;;;;;8.53;6.43;;;8.90;98.40;;;;;;4996799;28;20460;-71
2023/05/03 01:18:56;;;;;;;8.30;5.87;;;8.90;98.50;;;;;;4998414;28;20549;-70
2023/05/03 01:21:24;;;;;;;10.60;6.97;;;8.80;98.50;;;;;;5001294;28;20463;-71
2023/05/03 01:23:57;;;;;;;8.27;5.70;;;8.80;99.10;;;;;;4992323;28;20495;-71
2023/05/03 01:26:27;;;;;;;7.53;6.10;;;8.70;99.10;;;;;;4996812;28;20469;-71
2023/05/03 01:28:54;;;;;;;6.70;5.93;;;8.70;98.90;;;;;;5003916;28;20463;-71
2023/05/03 01:31:26;;;;;;;10.33;7.57;;;8.60;99.90;;;;;;4996299;28;20464;-71
2023/05/03 01:34:12;;;;;;;8.10;6.23;;;8.60;99.90;;;;;;4998953;28;20501;-71
2023/05/03 01:36:43;;;;;;;7.90;7.10;;;8.50;99.90;;;;;;4997031;28;20460;-71
2023/05/03 01:39:14;;;;;;;7.20;6.07;;;8.50;99.90;;;;;;5007538;28;20811;-70
2023/05/03 01:41:43;;;;;;;8.03;6.53;;;8.60;99.90;;;;;;4998308;28;21001;-71
2023/05/03 01:44:11;;;;;;;10.17;5.90;;;8.60;99.90;;;;;;4999883;28;20485;-71
2023/05/03 01:46:43;;;;;;;7.13;6.40;;;8.50;99.90;;;;;;5003483;28;20492;-71
2023/05/03 01:49:10;;;;;;;9.10;7.17;;;8.50;99.90;;;;;;5001166;28;20473;-71
2023/05/03 01:51:36;;;;;;;8.83;6.70;;;8.40;99.90;;;;;;5008380;28;20979;-71
2023/05/03 01:54:03;;;;;;;7.53;6.53;;;8.50;99.90;;;;;;5001146;28;20486;-71
2023/05/03 01:56:31;;;;;;;7.20;6.50;;;8.60;99.90;;;;;;5005362;28;20467;-73
2023/05/03 01:58:59;;;;;;;7.50;6.80;;;8.70;99.90;;;;;;5008502;28;20463;-71
2023/05/03 02:01:26;;;;;;;7.70;6.30;;;8.60;99.90;;;;;;4998528;28;20574;-69
2023/05/03 02:03:53;;;;;;;10.00;7.57;;;8.60;99.90;;;;;;5002716;28;20485;-71
2023/05/03 02:06:20;;;;;;;8.20;6.90;;;8.70;99.90;;;;;;4997687;28;20470;-71
2023/05/03 02:08:47;;;;;;;7.67;6.80;;;8.60;99.90;;;;;;5002521;28;21036;-70
2023/05/03 02:11:14;;;;;;;11.43;7.33;;;8.50;99.90;;;;;;4996732;28;20467;-70
2023/05/03 02:13:40;;;;;;;7.30;6.60;;;8.70;99.90;;;;;;4998153;28;21041;-70
2023/05/03 02:16:09;;;;;;;8.60;7.37;;;8.60;99.90;;;;;;5002924;28;20465;-71
2023/05/03 02:18:36;;;;;;;8.63;7.83;;;8.60;99.90;;;;;;4998371;28;20464;-70
2023/05/03 02:21:04;;;;;;;10.27;8.57;;;8.60;99.90;;;;;;5005785;28;20480;-70
2023/05/03 02:23:30;;;;;;;10.73;8.03;;;8.50;99.90;;;;;;5000194;28;20486;-70
2023/05/03 02:25:58;;;;;;;9.33;8.20;;;8.50;99.90;;;;;;4999524;28;20466;-70
2023/05/03 02:28:24;;;;;;;10.87;7.90;;;8.50;99.90;;;;;;4998103;28;20483;-70
2023/05/03 02:30:51;;;;;;;8.00;7.00;;;8.50;99.90;;;;;;4997571;28;20481;-69
2023/05/03 02:33:19;;;;;;;14.37;8.67;;;8.50;99.90;;;;;;4995676;28;20486;-70
2023/05/03 02:35:46;;;;;;;10.20;7.20;;;8.40;99.90;;;;;;4997556;28;20465;-70
2023/05/03 02:38:13;;;;;;;9.60;7.90;;;8.30;99.90;;;;;;5003937;28;20455;-70
2023/05/03 02:40:40;;;;;;;13.43;8.70;;;8.20;99.90;;;;;;4997093;28;20484;-70
2023/05/03 02:43:07;;;;;;;9.87;8.90;;;8.20;99.90;;;;;;4993525;28;20473;-70
2023/05/03 02:45:36;;;;;;;10.17;7.83;;;8.10;99.90;;;;;;5002280;28;20836;-70
2023/05/03 02:48:02;;;;;;;9.23;7.37;;;8.00;99.90;;;;;;4999002;28;20484;-70
2023/05/03 02:50:31;;;;;;;11.43;8.57;;;8.00;99.90;;;;;;4993450;28;20474;-69
2023/05/03 02:52:57;;;;;;;12.33;9.17;;;8.00;99.90;;;;;;4995359;28;20851;-69
2023/05/03 02:55:24;;;;;;;9.90;7.67;;;7.90;99.90;;;;;;5002839;28;20467;-69
2023/05/03 02:57:51;;;;;;;13.90;9.07;;;7.80;99.90;;;;;;4996856;28;21044;-69
2023/05/03 03:00:18;;;;;;;12.20;9.00;;;7.70;99.90;;;;;;4996176;28;20461;-70
2023/05/03 03:02:45;;;;;;;10.43;8.97;;;7.60;99.90;;;;;;4994769;28;20577;-70
2023/05/03 03:05:12;;;;;;;11.23;8.20;;;7.60;99.90;;;;;;4996106;28;20473;-69
2023/05/03 03:07:40;;;;;;;10.40;8.97;;;7.50;99.90;;;;;;4996843;28;20489;-70
2023/05/03 03:10:08;;;;;;;269.70;227.27;;;7.40;99.90;;;;;;4996757;28;20485;-70
2023/05/03 03:12:36;;;;;;;94.00;88.43;;;7.50;99.90;;;;;;4995929;28;20466;-70
2023/05/03 03:15:03;;;;;;;212.27;158.20;;;7.40;99.90;;;;;;5003317;28;21019;-70
2023/05/03 03:17:30;;;;;;;170.37;23.60;;;7.30;99.90;;;;;;4998036;28;20484;-70
2023/05/03 03:19:57;;;;;;;13.47;7.87;;;7.20;99.90;;;;;;5009647;28;20458;-71
2023/05/03 03:22:24;;;;;;;10.07;7.67;;;7.10;99.90;;;;;;4997174;28;20460;-71
2023/05/03 03:24:52;;;;;;;12.83;9.20;;;7.00;99.90;;;;;;4997316;28;20953;-70
2023/05/03 03:27:20;;;;;;;10.77;9.00;;;6.90;99.90;;;;;;4997451;28;20486;-70
2023/05/03 03:29:47;;;;;;;13.37;8.97;;;6.90;99.90;;;;;;4996413;28;21033;-70
2023/05/03 03:32:14;;;;;;;12.00;9.93;;;7.00;99.90;;;;;;4999795;28;20477;-71
2023/05/03 03:34:41;;;;;;;19.67;10.47;;;6.90;99.90;;;;;;4995521;28;20490;-72
2023/05/03 03:37:07;;;;;;;17.43;11.30;;;6.90;99.90;;;;;;4996911;28;20458;-70
2023/05/03 03:39:34;;;;;;;14.27;9.93;;;6.90;99.90;;;;;;4997882;28;20974;-70
2023/05/03 03:42:03;;;;;;;16.93;10.10;;;6.80;99.90;;;;;;4998680;28;20989;-71
2023/05/03 03:44:29;;;;;;;13.03;9.93;;;6.80;99.90;;;;;;5002251;28;20482;-70
2023/05/03 03:46:56;;;;;;;15.27;10.63;;;6.90;99.90;;;;;;4998985;28;20479;-70
2023/05/03 03:49:23;;;;;;;11.83;9.50;;;6.80;99.90;;;;;;5000549;28;20497;-70
2023/05/03 03:51:50;;;;;;;13.37;9.67;;;6.80;99.90;;;;;;4995136;28;20461;-76
2023/05/03 03:54:17;;;;;;;15.17;10.37;;;6.80;99.90;;;;;;4996757;28;20487;-71
2023/05/03 03:56:43;;;;;;;12.10;9.60;;;6.80;99.90;;;;;;4998712;28;20466;-71
2023/05/03 03:59:12;;;;;;;13.70;9.13;;;6.60;99.90;;;;;;5003981;28;20462;-71
2023/05/03 04:01:39;;;;;;;12.87;9.73;;;6.70;99.90;;;;;;4992627;28;20471;-71
2023/05/03 04:04:06;;;;;;;16.27;10.00;;;6.60;99.90;;;;;;4995609;28;20544;-71
2023/05/03 04:06:32;;;;;;;12.60;9.70;;;6.60;99.90;;;;;;4994992;28;20475;-70
2023/05/03 04:08:59;;;;;;;13.83;9.50;;;6.40;99.90;;;;;;4995361;28;21215;-71
2023/05/03 04:11:26;;;;;;;13.73;10.67;;;6.30;99.90;;;;;;4998122;28;20468;-71
2023/05/03 04:13:53;;;;;;;16.53;11.27;;;6.40;99.90;;;;;;4994258;28;20505;-70
2023/05/03 04:16:21;;;;;;;14.17;10.73;;;6.50;99.90;;;;;;4993881;28;20457;-70
2023/05/03 04:18:48;;;;;;;16.13;10.63;;;6.50;99.90;;;;;;4992901;28;20451;-70
2023/05/03 04:21:15;;;;;;;13.50;10.57;;;6.50;99.90;;;;;;4999371;28;20476;-70
2023/05/03 04:23:41;;;;;;;16.93;13.07;;;6.50;99.90;;;;;;4989760;28;21432;-70
2023/05/03 04:26:09;;;;;;;15.93;11.30;;;6.50;99.90;;;;;;5005087;28;20470;-72
2023/05/03 04:28:37;;;;;;;20.30;12.00;;;6.40;99.90;;;;;;4995672;28;20514;-70
2023/05/03 04:31:04;;;;;;;17.00;11.50;;;6.50;99.90;;;;;;5002994;28;20480;-71
2023/05/03 04:33:33;;;;;;;15.37;11.57;;;6.60;99.90;;;;;;4993388;28;20496;-70
2023/05/03 04:36:00;;;;;;;14.10;11.30;;;6.60;99.90;;;;;;4995732;28;20458;-71
2023/05/03 04:38:27;;;;;;;15.90;11.50;;;6.70;99.90;;;;;;5002924;28;20460;-71
2023/05/03 04:40:53;;;;;;;13.23;10.93;;;6.80;99.90;;;;;;4997504;28;21002;-73
2023/05/03 04:43:20;;;;;;;15.87;10.47;;;6.90;99.90;;;;;;5002737;28;20549;-73
2023/05/03 04:45:47;;;;;;;16.30;11.70;;;7.00;99.90;;;;;;4997756;28;20546;-73
2023/05/03 04:48:15;;;;;;;17.27;10.70;;;7.10;99.90;;;;;;4997053;28;20482;-70
2023/05/03 04:50:44;;;;;;;15.83;10.80;;;7.10;99.90;;;;;;4997035;28;20466;-70
2023/05/03 04:53:11;;;;;;;14.17;11.63;;;7.10;99.90;;;;;;4997844;28;20465;-74
2023/05/03 04:55:38;;;;;;;13.23;10.20;;;7.10;99.90;;;;;;4994400;28;20464;-70
2023/05/03 04:58:05;;;;;;;17.20;12.03;;;7.10;99.90;;;;;;5007903;28;20968;-70
2023/05/03 05:00:32;;;;;;;13.37;10.40;;;7.10;99.90;;;;;;4995396;28;20473;-70
2023/05/03 05:02:59;;;;;;;19.90;11.57;;;7.30;99.90;;;;;;4999609;28;20470;-70
2023/05/03 05:05:26;;;;;;;19.37;11.40;;;7.40;99.90;;;;;;4998760;28;20591;-71
2023/05/03 05:07:54;;;;;;;14.93;11.20;;;7.40;99.90;;;;;;4996813;28;20478;-71
2023/05/03 05:10:21;;;;;;;15.90;11.13;;;7.40;99.90;;;;;;5003994;28;20459;-70
2023/05/03 05:12:47;;;;;;;18.40;12.27;;;7.30;99.90;;;;;;4997897;28;20993;-71
2023/05/03 05:15:14;;;;;;;20.77;11.27;;;7.40;99.90;;;;;;5008286;28;20493;-72
2023/05/03 05:17:41;;;;;;;16.50;11.80;;;7.40;99.90;;;;;;5000058;28;20467;-71
2023/05/03 05:20:11;;;;;;;17.50;11.97;;;7.40;99.90;;;;;;4998231;28;20481;-71
2023/05/03 05:22:38;;;;;;;20.47;12.10;;;7.40;99.90;;;;;;5002848;28;20465;-74
2023/05/03 05:25:07;;;;;;;19.90;12.80;;;7.60;99.90;;;;;;5000453;28;20480;-71
2023/05/03 05:27:34;;;;;;;17.90;12.90;;;7.60;99.90;;;;;;4967396;28;20465;-70
2023/05/03 05:30:03;;;;;;;23.23;13.90;;;7.60;99.90;;;;;;5003112;28;20477;-71
2023/05/03 05:32:30;;;;;;;16.23;11.50;;;7.70;99.90;;;;;;4999779;28;20468;-71
2023/05/03 05:34:56;;;;;;;18.80;11.77;;;7.70;99.90;;;;;;4998505;28;20513;-72
2023/05/03 05:37:24;;;;;;;18.53;11.43;;;7.80;99.90;;;;;;4998660;28;20469;-70
2023/05/03 05:39:51;;;;;;;19.20;12.70;;;7.80;99.90;;;;;;4999512;28;20475;-70
2023/05/03 05:42:20;;;;;;;14.97;12.30;;;7.90;99.90;;;;;;5000184;28;20484;-70
2023/05/03 05:44:46;;;;;;;20.93;12.93;;;8.00;99.90;;;;;;4998780;28;21010;-70
2023/05/03 05:47:13;;;;;;;21.10;13.27;;;8.00;99.90;;;;;;4999398;28;20458;-70
2023/05/03 05:49:40;;;;;;;22.50;11.97;;;8.10;99.90;;;;;;4995861;28;21090;-71
2023/05/03 05:52:07;;;;;;;17.57;12.57;;;8.20;99.90;;;;;;5002435;28;20461;-70
2023/05/03 05:54:35;;;;;;;19.80;12.93;;;8.30;99.90;;;;;;5000097;28;20494;-71
2023/05/03 05:57:02;;;;;;;15.70;11.83;;;8.40;99.90;;;;;;4993082;28;20550;-70
2023/05/03 05:59:30;;;;;;;15.87;11.33;;;8.50;99.90;;;;;;4994705;28;20969;-70
2023/05/03 06:01:59;;;;;;;17.50;12.00;;;8.70;99.90;;;;;;5010018;28;20459;-71
2023/05/03 06:04:25;;;;;;;14.53;11.83;;;8.70;99.90;;;;;;4996312;28;21008;-71
2023/05/03 06:06:52;;;;;;;16.40;12.53;;;8.70;99.90;;;;;;4997235;28;20497;-71
2023/05/03 06:09:20;;;;;;;16.10;12.20;;;8.80;99.90;;;;;;4999042;28;22027;-71
2023/05/03 06:11:46;;;;;;;22.33;12.37;;;8.90;99.90;;;;;;4999152;28;20462;-71
2023/05/03 06:14:14;;;;;;;15.90;11.87;;;9.00;99.50;;;;;;5006212;28;20481;-71
2023/05/03 06:16:42;;;;;;;20.87;14.30;;;9.00;99.40;;;;;;4993378;28;20592;-71
2023/05/03 06:19:09;;;;;;;21.97;13.40;;;9.00;99.70;;;;;;4993035;28;20483;-71
2023/05/03 06:21:35;;;;;;;21.70;11.67;;;9.10;99.40;;;;;;4997672;28;20461;-71
2023/05/03 06:24:02;;;;;;;15.07;12.57;;;9.30;99.60;;;;;;4993260;28;20879;-72
2023/05/03 06:26:29;;;;;;;16.93;12.70;;;9.30;98.70;;;;;;4998494;28;20466;-72
2023/05/03 06:28:56;;;;;;;17.50;12.63;;;9.50;98.20;;;;;;4997348;28;21047;-71
2023/05/03 06:31:23;;;;;;;18.40;12.63;;;9.40;97.90;;;;;;4996650;28;20461;-71
2023/05/03 06:33:51;;;;;;;18.43;12.20;;;9.50;98.10;;;;;;4997313;28;20497;-72
2023/05/03 06:36:18;;;;;;;14.57;12.27;;;9.60;98.30;;;;;;4991597;28;21068;-71
2023/05/03 06:38:44;;;;;;;14.67;12.00;;;9.70;98.60;;;;;;4995022;28;20444;-71
2023/05/03 06:41:11;;;;;;;16.80;12.47;;;9.70;97.70;;;;;;4993542;28;21117;-71
2023/05/03 06:43:38;;;;;;;18.27;12.60;;;9.70;97.70;;;;;;5002772;28;21021;-71
2023/05/03 06:46:05;;;;;;;16.50;12.27;;;9.90;97.90;;;;;;5007225;28;20458;-74
2023/05/03 06:48:32;;;;;;;16.67;11.60;;;10.00;96.40;;;;;;4992960;28;21019;-71
2023/05/03 06:51:00;;;;;;;14.90;11.80;;;10.00;96.30;;;;;;4992272;28;20464;-71
2023/05/03 06:53:27;;;;;;;16.23;12.70;;;10.20;95.00;;;;;;4994008;28;20479;-70
2023/05/03 06:55:54;;;;;;;16.17;11.90;;;10.20;95.20;;;;;;4996155;28;20468;-71
2023/05/03 06:58:21;;;;;;;18.00;11.57;;;10.30;95.40;;;;;;4998958;28;20476;-71
2023/05/03 07:00:52;;;;;;;15.57;11.10;;;10.30;94.70;;;;;;4998800;28;20460;-71
2023/05/03 07:03:18;;;;;;;14.17;11.70;;;10.40;95.00;;;;;;4994836;28;20489;-71
2023/05/03 07:05:46;;;;;;;14.47;10.60;;;10.60;95.60;;;;;;4996090;28;20841;-71
2023/05/03 07:08:14;;;;;;;15.67;11.70;;;10.70;94.00;;;;;;4995372;28;20555;-71
2023/05/03 07:10:41;;;;;;;16.20;12.00;;;10.80;93.70;;;;;;5009778;28;20474;-72
2023/05/03 07:13:08;;;;;;;14.60;12.03;;;10.90;93.90;;;;;;5004974;28;20461;-71
2023/05/03 07:15:34;;;;;;;14.57;12.70;;;10.90;93.20;;;;;;5001179;28;20466;-71
2023/05/03 07:18:01;;;;;;;14.23;12.53;;;11.00;92.80;;;;;;4996467;28;21085;-71
2023/05/03 07:20:28;;;;;;;16.13;12.10;;;11.10;93.30;;;;;;5002768;28;20461;-71
2023/05/03 07:22:56;;;;;;;16.07;12.10;;;11.10;94.10;;;;;;5004529;28;21025;-71
2023/05/03 07:25:24;;;;;;;15.70;12.30;;;11.30;92.50;;;;;;4998733;28;20470;-71
2023/05/03 07:27:51;;;;;;;13.50;11.97;;;11.30;92.90;;;;;;4996303;28;20868;-72
2023/05/03 07:30:18;;;;;;;14.10;12.60;;;11.40;92.90;;;;;;4995386;28;20556;-71
2023/05/03 07:32:45;;;;;;;14.53;12.07;;;11.40;93.40;;;;;;5003051;28;20463;-70
2023/05/03 07:35:12;;;;;;;13.30;11.67;;;11.50;91.60;;;;;;4998536;28;20489;-71
2023/05/03 07:37:38;;;;;;;18.93;12.93;;;11.40;91.70;;;;;;5000183;28;20467;-71
2023/05/03 07:40:06;;;;;;;14.13;12.30;;;11.50;92.40;;;;;;5003000;28;21028;-70
2023/05/03 07:42:35;;;;;;;13.97;12.07;;;11.60;92.50;;;;;;4994199;28;20852;-71
2023/05/03 07:45:02;;;;;;;15.07;11.67;;;11.70;91.70;;;;;;4996882;28;21512;-71
2023/05/03 07:47:28;;;;;;;13.70;11.03;;;12.00;91.70;;;;;;4994534;28;20961;-71
2023/05/03 07:49:55;;;;;;;12.30;10.30;;;12.10;91.30;;;;;;4992360;28;20484;-71
2023/05/03 07:52:22;;;;;;;14.83;12.10;;;12.20;90.10;;;;;;4993981;28;20473;-71
2023/05/03 07:54:49;;;;;;;13.90;11.67;;;12.20;90.20;;;;;;4996105;28;21013;-71
2023/05/03 07:57:19;;;;;;;15.77;12.63;;;12.20;91.20;;;;;;5000047;28;20469;-70
2023/05/03 07:59:47;;;;;;;13.20;11.80;;;12.40;90.40;;;;;;4997969;28;20469;-71
2023/05/03 08:02:13;;;;;;;15.43;13.10;;;12.50;91.10;;;;;;4993775;28;20470;-72
2023/05/03 08:04:40;;;;;;;13.07;10.93;;;12.80;89.50;;;;;;4995620;28;21220;-71
2023/05/03 08:07:07;;;;;;;12.90;11.47;;;13.00;87.00;;;;;;4997751;28;20468;-71
2023/05/03 08:09:35;;;;;;;12.77;11.47;;;13.00;87.10;;;;;;5000053;28;20486;-71
2023/05/03 08:12:02;;;;;;;13.90;11.30;;;13.10;86.00;;;;;;4997158;28;20551;-71
2023/05/03 08:14:29;;;;;;;11.77;10.40;;;13.30;88.40;;;;;;4988927;28;20482;-72
2023/05/03 08:16:58;;;;;;;11.47;10.27;;;13.50;85.30;;;;;;5000540;28;20474;-71
2023/05/03 08:19:25;;;;;;;11.77;10.37;;;13.70;82.60;;;;;;4999860;28;20459;-71
2023/05/03 08:21:53;;;;;;;16.10;11.67;;;13.90;80.30;;;;;;5000055;28;20466;-71
2023/05/03 08:24:20;;;;;;;13.83;11.27;;;14.20;81.00;;;;;;4992057;28;20505;-70
2023/05/03 08:26:47;;;;;;;11.47;10.30;;;14.20;81.10;;;;;;4999395;28;20849;-72
2023/05/03 08:29:15;;;;;;;13.27;10.23;;;14.20;81.70;;;;;;4996613;28;20487;-73
2023/05/03 08:31:42;;;;;;;12.40;11.20;;;14.30;82.10;;;;;;4996407;28;20493;-71
2023/05/03 08:34:10;;;;;;;13.27;10.80;;;14.00;79.10;;;;;;5000093;28;20477;-71
2023/05/03 08:36:38;;;;;;;12.57;11.23;;;14.10;82.90;;;;;;4994834;28;20866;-72
2023/05/03 08:39:06;;;;;;;13.20;11.40;;;14.20;78.60;;;;;;4998468;28;20461;-71
2023/05/03 08:41:34;;;;;;;11.50;10.30;;;13.90;80.20;;;;;;4997498;28;20468;-71
2023/05/03 08:44:02;;;;;;;12.17;10.93;;;13.90;82.80;;;;;;4993883;28;20475;-72
2023/05/03 08:46:29;;;;;;;11.77;10.53;;;13.90;82.20;;;;;;4994081;28;20490;-71
2023/05/03 08:48:57;;;;;;;12.07;10.57;;;14.10;82.10;;;;;;4996242;28;20470;-71
2023/05/03 08:51:26;;;;;;;12.67;11.37;;;14.30;79.10;;;;;;5002944;28;20517;-71
2023/05/03 08:53:53;;;;;;;13.40;10.53;;;14.40;77.80;;;;;;4992668;28;20482;-71
2023/05/03 08:56:27;;;;;;;11.63;10.50;;;14.30;80.20;;;;;;4995213;28;20462;-71
2023/05/03 08:58:54;;;;;;;12.40;11.10;;;14.30;77.70;;;;;;4996807;28;20492;-71
2023/05/03 09:01:21;;;;;;;12.13;10.10;;;14.30;81.10;;;;;;4993783;28;20480;-71
2023/05/03 09:03:52;;;;;;;11.77;9.70;;;14.70;84.10;;;;;;4994946;28;20478;-72
2023/05/03 09:06:20;;;;;;;10.93;9.07;;;15.40;76.70;;;;;;5001302;28;20463;-71
2023/05/03 09:08:48;;;;;;;11.50;9.80;;;16.10;73.70;;;;;;4999136;28;20463;-71
2023/05/03 09:11:23;;;;;;;12.20;10.50;;;16.10;71.80;;;;;;5004061;28;20556;-72
2023/05/03 09:13:53;;;;;;;10.87;9.70;;;16.20;73.30;;;;;;4994718;28;20490;-72
2023/05/03 09:16:26;;;;;;;11.70;10.50;;;16.40;68.90;;;;;;4998269;28;20538;-71
2023/05/03 09:18:59;;;;;;;11.97;10.73;;;16.60;66.70;;;;;;4997141;28;20543;-72
2023/05/03 09:21:26;;;;;;;11.73;10.53;;;16.30;68.80;;;;;;4996857;28;20470;-71
2023/05/03 09:23:55;;;;;;;13.00;11.70;;;16.10;69.70;;;;;;4995102;28;20479;-71
2023/05/03 09:26:29;;;;;;;11.80;9.83;;;15.80;70.30;;;;;;5004240;28;21172;-71
2023/05/03 09:28:58;;;;;;;11.40;10.30;;;15.70;71.50;;;;;;5001566;28;20492;-71
2023/05/03 09:31:25;;;;;;;12.90;10.67;;;15.70;74.20;;;;;;4996875;28;20462;-71
2023/05/03 09:33:52;;;;;;;13.73;10.60;;;16.00;75.00;;;;;;4998663;28;20491;-71
2023/05/03 09:36:19;;;;;;;11.77;10.57;;;16.50;71.20;;;;;;4993272;28;20470;-72
2023/05/03 09:38:46;;;;;;;9.30;8.50;;;17.00;72.30;;;;;;4997770;28;20469;-71
2023/05/03 09:41:14;;;;;;;12.07;10.87;;;17.70;69.80;;;;;;4996502;28;20463;-71
2023/05/03 09:43:49;;;;;;;9.80;9.00;;;18.10;64.20;;;;;;4999907;28;20474;-73
2023/05/03 09:46:16;;;;;;;10.80;9.07;;;18.50;62.60;;;;;;5001260;28;20470;-72
2023/05/03 09:48:44;;;;;;;9.70;8.80;;;19.10;62.90;;;;;;4998097;28;20468;-73
2023/05/03 09:51:11;;;;;;;8.87;8.03;;;19.60;60.40;;;;;;5006859;28;20482;-71
2023/05/03 09:53:41;;;;;;;9.60;8.27;;;20.10;55.00;;;;;;4994360;28;20487;-71
2023/05/03 09:56:12;;;;;;;11.73;10.07;;;20.30;55.90;;;;;;5004354;28;20457;-71
2023/05/03 09:58:41;;;;;;;9.10;8.23;;;19.70;57.80;;;;;;5011719;28;20468;-71
2023/05/03 10:01:09;;;;;;;9.50;8.63;;;19.60;57.90;;;;;;4998135;28;21076;-72
2023/05/03 10:03:42;;;;;;;8.17;7.50;;;19.60;55.30;;;;;;4998803;28;20486;-71
2023/05/03 10:06:20;;;;;;;7.80;7.10;;;19.70;56.60;;;;;;4997236;28;20517;-71
2023/05/03 10:08:52;;;;;;;8.80;8.00;;;20.30;56.70;;;;;;5000376;28;20466;-71
2023/05/03 10:11:26;;;;;;;9.60;8.80;;;20.60;55.00;;;;;;4998391;28;20561;-71
2023/05/03 10:13:55;;;;;;;9.77;8.97;;;19.60;55.00;;;;;;5004562;28;20484;-71
2023/05/03 10:16:30;;;;;;;11.43;9.03;;;18.80;56.20;;;;;;4995545;28;21151;-71
2023/05/03 10:19:04;;;;;;;10.30;9.13;;;18.50;56.80;;;;;;5000325;28;20629;-71
2023/05/03 10:21:42;;;;;;;8.90;7.90;;;18.70;55.60;;;;;;5000884;28;20507;-72
2023/05/03 10:24:14;;;;;;;8.63;7.93;;;19.10;57.30;;;;;;4993489;28;20486;-72
2023/05/03 10:26:42;;;;;;;10.40;9.40;;;19.80;57.70;;;;;;5012486;28;20471;-71
2023/05/03 10:29:47;;;;;;;9.80;8.90;;;20.50;53.50;;;;;;5005897;28;20471;-71
2023/05/03 10:32:33;;;;;;;9.03;8.23;;;19.60;54.50;;;;;;4991524;28;20471;-71
2023/05/03 10:35:02;;;;;;;10.07;9.17;;;19.30;56.00;;;;;;4996535;28;20573;-71
2023/05/03 10:37:30;;;;;;;9.97;9.17;;;19.20;55.70;;;;;;4993068;28;20462;-71
2023/05/03 10:40:05;;;;;;;9.47;8.57;;;19.20;56.70;;;;;;5005130;28;20471;-72
2023/05/03 10:42:32;;;;;;;9.60;8.70;;;19.10;55.70;;;;;;5001238;28;20468;-71
2023/05/03 10:45:02;;;;;;;8.50;7.70;;;19.00;58.10;;;;;;5001444;28;20553;-71
2023/05/03 10:47:30;;;;;;;8.50;7.80;;;19.60;56.10;;;;;;4994905;28;20474;-71
2023/05/03 10:50:26;;;;;;;7.63;7.03;;;20.00;57.20;;;;;;4998986;28;20482;-72
2023/05/03 10:52:55;;;;;;;8.03;7.33;;;20.30;56.10;;;;;;4993315;28;21006;-71
2023/05/03 10:55:23;;;;;;;8.77;8.07;;;20.30;54.30;;;;;;4994461;28;20466;-71
2023/05/03 10:57:54;;;;;;;7.70;6.90;;;19.50;53.50;;;;;;5009306;28;20457;-70
2023/05/03 11:00:24;;;;;;;7.33;6.80;;;19.90;52.30;;;;;;4994800;28;20457;-71
2023/05/03 11:03:11;;;;;;;11.37;8.57;;;20.90;53.50;;;;;;4999705;28;20497;-70
2023/05/03 11:05:39;;;;;;;8.03;7.33;;;21.50;48.90;;;;;;4997876;28;20987;-71
2023/05/03 11:08:09;;;;;;;6.93;6.33;;;21.10;49.30;;;;;;4998646;28;20467;-71
2023/05/03 11:10:36;;;;;;;7.53;6.93;;;21.20;53.40;;;;;;4997460;28;20484;-71
2023/05/03 11:13:03;;;;;;;7.20;6.70;;;22.00;48.70;;;;;;4998416;28;20467;-71
2023/05/03 11:15:30;;;;;;;7.10;6.50;;;22.30;49.60;;;;;;4994603;28;21237;-71
2023/05/03 11:17:58;;;;;;;6.43;5.93;;;22.80;48.40;;;;;;5001016;28;20898;-71
2023/05/03 11:20:25;;;;;;;7.97;7.17;;;23.80;47.50;;;;;;4998122;28;20468;-71
2023/05/03 11:22:52;;;;;;;8.27;7.57;;;24.30;45.90;;;;;;4996741;28;20466;-71
2023/05/03 11:25:19;;;;;;;7.37;6.27;;;24.80;42.40;;;;;;5001556;28;20490;-70
2023/05/03 11:27:46;;;;;;;7.30;5.80;;;25.40;45.90;;;;;;5003309;28;20463;-71
2023/05/03 11:30:14;;;;;;;6.30;5.67;;;26.30;43.00;;;;;;5005123;28;20491;-71
2023/05/03 11:32:43;;;;;;;6.23;5.73;;;26.80;42.90;;;;;;4991776;28;20520;-71
2023/05/03 11:35:14;;;;;;;6.97;6.40;;;26.70;38.70;;;;;;4997742;28;21068;-72
2023/05/03 11:37:42;;;;;;;5.90;5.30;;;26.30;37.60;;;;;;5003123;28;20545;-71
2023/05/03 11:40:17;;;;;;;7.53;6.83;;;25.50;40.80;;;;;;4991886;28;20471;-71
2023/05/03 11:42:51;;;;;;;5.83;5.33;;;25.50;40.00;;;;;;4992735;28;20494;-71
2023/05/03 11:45:20;;;;;;;7.93;7.27;;;25.30;41.50;;;;;;4992863;28;20472;-71
2023/05/03 11:47:47;;;;;;;6.60;6.10;;;24.90;45.00;;;;;;4999974;28;20471;-70
2023/05/03 11:50:15;;;;;;;8.23;7.40;;;23.20;42.60;;;;;;4999280;28;20477;-70
2023/05/03 11:52:42;;;;;;;7.20;6.60;;;22.00;45.30;;;;;;4990679;28;20473;-71
2023/05/03 11:55:10;;;;;;;6.20;5.60;;;20.70;46.50;;;;;;4998723;28;20531;-71
2023/05/03 11:57:38;;;;;;;7.07;6.43;;;20.10;49.80;;;;;;4996460;28;21465;-71
2023/05/03 12:00:15;;;;;;;7.73;7.03;;;21.10;47.00;;;;;;4996244;28;20512;-71
2023/05/03 12:02:43;;;;;;;7.27;6.60;;;22.90;48.80;;;;;;4989224;28;20549;-70
2023/05/03 12:05:10;;;;;;;5.50;5.10;;;24.30;42.70;;;;;;4992082;28;20569;-72
2023/05/03 12:07:38;;;;;;;6.73;6.07;;;24.10;43.90;;;;;;4997573;28;20562;-71
2023/05/03 12:10:17;;;;;;;6.67;5.97;;;22.90;43.60;;;;;;5002948;28;21110;-71
2023/05/03 12:12:55;;;;;;;6.13;5.63;;;22.00;47.50;;;;;;5002526;28;20488;-71
2023/05/03 12:15:32;;;;;;;8.80;8.00;;;21.80;47.30;;;;;;5007497;28;20482;-72
2023/05/03 12:18:01;;;;;;;6.57;6.03;;;22.80;43.40;;;;;;5000083;28;20467;-73
2023/05/03 12:20:30;;;;;;;5.87;5.37;;;22.90;44.30;;;;;;4996811;28;20468;-70
2023/05/03 12:23:01;;;;;;;7.80;7.10;;;22.20;46.00;;;;;;5006418;28;20477;-71
2023/05/03 12:25:29;;;;;;;6.43;5.57;;;22.40;44.30;;;;;;5003533;28;20460;-71
2023/05/03 12:27:58;;;;;;;6.30;5.40;;;21.80;42.30;;;;;;5009598;28;20471;-68
2023/05/03 12:30:25;;;;;;;6.10;5.60;;;21.20;46.60;;;;;;4996022;28;20484;-69
2023/05/03 12:32:52;;;;;;;5.43;4.93;;;20.70;49.10;;;;;;4990444;28;20470;-69
2023/05/03 12:35:20;;;;;;;6.37;5.87;;;21.60;48.30;;;;;;5008049;28;20485;-69
2023/05/03 12:37:48;;;;;;;6.80;6.20;;;23.20;42.00;;;;;;5017312;28;20463;-69
2023/05/03 12:40:19;;;;;;;5.87;5.37;;;24.00;40.00;;;;;;5008283;28;20539;-71
2023/05/03 12:42:46;;;;;;;6.17;5.67;;;25.00;40.60;;;;;;5000602;28;22383;-70
2023/05/03 12:45:13;;;;;;;6.97;5.73;;;26.10;39.20;;;;;;5002416;28;20478;-70
2023/05/03 12:47:40;;;;;;;5.80;5.40;;;25.70;42.20;;;;;;4999070;28;20467;-70